Terminal Aerodrome Forecast
Issued by NWS San Angelo, TX

Home | Current Version | Previous Version | Text Only | Print | Product List | Glossary On
Versions: 1 2 3 4 5 6 7 8 9 10 11 12 13
000
FTUS44 KSJT 171700 RRA
TAFABI
TAF
KABI 171741Z 1718/1818 19008KT P6SM SCT035 BKN250
     FM172100 VRB06KT P6SM VCSH BKN040
     FM180100 13005KT P6SM BKN100=

USA.gov is the U.S. government's official web portal to all federal, state and local government web resources and services.